createdAt,value
2018-06-03T00:01:44.815Z,101350.41
2018-06-03T00:04:13.435Z,101339.97
2018-06-03T00:06:42.190Z,101351.61
2018-06-03T00:09:10.765Z,101331.84
2018-06-03T00:11:39.432Z,101337.00
2018-06-03T00:14:08.084Z,101326.53
2018-06-03T00:16:36.802Z,101341.83
2018-06-03T00:19:05.496Z,101340.23
2018-06-03T00:21:43.747Z,101325.21
2018-06-03T00:24:12.264Z,101322.42
2018-06-03T00:26:43.804Z,101320.46
2018-06-03T00:29:12.965Z,101327.50
2018-06-03T00:31:41.772Z,101325.21
2018-06-03T00:34:10.704Z,101323.80
2018-06-03T00:36:43.837Z,101320.33
2018-06-03T00:39:12.981Z,101323.11
2018-06-03T00:41:42.161Z,101320.50
2018-06-03T00:44:11.329Z,101312.91
2018-06-03T00:46:40.307Z,101315.54
2018-06-03T00:49:09.401Z,101310.25
2018-06-03T00:51:38.410Z,101321.19
2018-06-03T00:54:07.231Z,101326.95
2018-06-03T00:56:47.890Z,101315.17
2018-06-03T00:59:16.714Z,101323.32
2018-06-03T01:01:45.654Z,101310.17
2018-06-03T01:04:14.723Z,101322.75
2018-06-03T01:06:43.624Z,101309.74
2018-06-03T01:09:12.733Z,101315.09
2018-06-03T01:11:41.838Z,101319.58
2018-06-03T01:14:10.685Z,101321.84
2018-06-03T01:16:40.013Z,101313.34
2018-06-03T01:19:10.662Z,101326.12
2018-06-03T01:21:39.865Z,101318.06
2018-06-03T01:24:09.299Z,101311.19
2018-06-03T01:26:38.464Z,101309.73
2018-06-03T01:29:07.301Z,101295.61
2018-06-03T01:31:36.261Z,101300.97
2018-06-03T01:34:05.218Z,101295.56
2018-06-03T01:36:34.451Z,101297.67
2018-06-03T01:39:03.428Z,101303.11
2018-06-03T01:41:32.511Z,101304.16
2018-06-03T01:44:01.607Z,101288.80
2018-06-03T01:46:30.674Z,101296.51
2018-06-03T01:48:59.610Z,101306.62
2018-06-03T01:51:28.544Z,101297.62
2018-06-03T01:53:57.655Z,101306.23
2018-06-03T01:56:26.796Z,101306.81
2018-06-03T01:58:55.659Z,101286.09
2018-06-03T02:01:24.720Z,101295.58
2018-06-03T02:03:53.900Z,101285.71
2018-06-03T02:06:22.854Z,101294.01
2018-06-03T02:08:51.908Z,101294.98
2018-06-03T02:11:21.059Z,101293.51
2018-06-03T02:13:50.218Z,101293.46
2018-06-03T02:16:19.332Z,101293.84
2018-06-03T02:18:48.255Z,101283.38
2018-06-03T02:21:17.416Z,101289.66
2018-06-03T02:23:46.447Z,101292.23
2018-06-03T02:26:15.385Z,101272.23
2018-06-03T02:28:44.480Z,101285.69
2018-06-03T02:31:13.541Z,101293.02
2018-06-03T02:33:42.449Z,101283.99
2018-06-03T02:36:11.376Z,101291.44
2018-06-03T02:38:40.381Z,101306.27
2018-06-03T02:41:09.388Z,101295.33
2018-06-03T02:43:38.450Z,101299.14
2018-06-03T02:46:07.689Z,101290.31
2018-06-03T02:48:36.699Z,101299.31
2018-06-03T02:51:05.844Z,101289.22
2018-06-03T02:53:34.885Z,101266.38
2018-06-03T02:56:03.786Z,101276.35
2018-06-03T02:58:32.678Z,101277.50
2018-06-03T03:01:01.497Z,101279.31
2018-06-03T03:03:30.449Z,101285.48
2018-06-03T03:05:59.338Z,101282.79
2018-06-03T03:08:28.297Z,101265.80
2018-06-03T03:10:58.024Z,101289.06
2018-06-03T03:13:26.975Z,101285.08
2018-06-03T03:15:56.243Z,101271.08
2018-06-03T03:18:25.156Z,101271.97
2018-06-03T03:20:54.045Z,101273.13
2018-06-03T03:23:23.206Z,101267.97
2018-06-03T03:25:52.158Z,101272.70
2018-06-03T03:28:21.272Z,101282.28
2018-06-03T03:30:50.378Z,101289.48
2018-06-03T03:33:19.482Z,101284.87
2018-06-03T03:35:48.303Z,101290.30
2018-06-03T03:38:17.900Z,101287.52
2018-06-03T03:40:47.026Z,101286.72
2018-06-03T03:43:16.094Z,101299.25
2018-06-03T03:45:45.341Z,101299.13
2018-06-03T03:48:14.241Z,101295.66
2018-06-03T03:50:43.285Z,101287.45
2018-06-03T03:53:12.434Z,101284.95
2018-06-03T03:55:41.678Z,101295.99
2018-06-03T03:58:10.567Z,101304.89
2018-06-03T04:00:39.368Z,101302.44
2018-06-03T04:03:08.200Z,101296.81
2018-06-03T04:05:37.363Z,101293.89
2018-06-03T04:08:07.062Z,101291.80
2018-06-03T04:10:36.254Z,101294.68
2018-06-03T04:13:05.279Z,101288.03
2018-06-03T04:15:34.264Z,101279.27
2018-06-03T04:18:03.086Z,101282.02
2018-06-03T04:20:32.204Z,101287.00
2018-06-03T04:23:01.276Z,101293.84
2018-06-03T04:25:30.291Z,101285.16
2018-06-03T04:27:59.184Z,101292.50
2018-06-03T04:30:28.205Z,101287.64
2018-06-03T04:32:57.442Z,101291.14
2018-06-03T04:35:26.655Z,101287.00
2018-06-03T04:37:55.655Z,101289.88
2018-06-03T04:40:24.542Z,101292.17
2018-06-03T04:42:53.674Z,101295.47
2018-06-03T04:45:22.832Z,101308.18
2018-06-03T04:47:51.660Z,101296.83
2018-06-03T04:50:20.661Z,101294.11
2018-06-03T04:52:49.653Z,101299.64
2018-06-03T04:55:18.495Z,101308.02
2018-06-03T04:57:47.532Z,101309.41
2018-06-03T05:00:17.380Z,101304.42
2018-06-03T05:02:46.459Z,101298.77
2018-06-03T05:05:15.399Z,101302.55
2018-06-03T05:07:44.372Z,101294.97
2018-06-03T05:10:13.394Z,101293.68
2018-06-03T05:12:42.439Z,101295.31
2018-06-03T05:15:11.383Z,101300.20
2018-06-03T05:17:40.265Z,101297.56
2018-06-03T05:20:09.111Z,101298.95
2018-06-03T05:22:38.076Z,101295.15
2018-06-03T05:25:07.258Z,101292.57
2018-06-03T05:27:36.097Z,101299.49
2018-06-03T05:30:05.039Z,101293.80
2018-06-03T05:32:34.071Z,101292.61
2018-06-03T05:35:03.016Z,101293.04
2018-06-03T05:37:32.136Z,101292.39
2018-06-03T05:40:01.167Z,101291.55
2018-06-03T05:42:30.142Z,101292.23
2018-06-03T05:44:58.978Z,101293.75
2018-06-03T05:47:27.844Z,101291.94
2018-06-03T05:49:56.771Z,101287.53
2018-06-03T05:52:25.696Z,101290.69
2018-06-03T05:54:54.917Z,101287.98
2018-06-03T05:57:24.019Z,101292.58
2018-06-03T05:59:53.000Z,101297.58
2018-06-03T06:02:21.884Z,101303.66
2018-06-03T06:04:50.956Z,101298.25
2018-06-03T06:07:20.094Z,101294.98
2018-06-03T06:09:48.892Z,101293.51
2018-06-03T06:12:17.729Z,101291.22
2018-06-03T06:14:46.695Z,101286.38
2018-06-03T06:17:15.722Z,101278.92
2018-06-03T06:19:44.632Z,101275.80
2018-06-03T06:22:13.611Z,101274.91
2018-06-03T06:24:42.404Z,101271.20
2018-06-03T06:27:12.098Z,101274.78
2018-06-03T06:29:41.049Z,101276.56
2018-06-03T06:32:10.080Z,101277.11
2018-06-03T06:34:39.246Z,101268.53
2018-06-03T06:37:08.389Z,101267.55
2018-06-03T06:39:37.437Z,101274.22
2018-06-03T06:42:06.477Z,101269.76
2018-06-03T06:44:35.353Z,101268.27
2018-06-03T06:47:04.352Z,101259.12
2018-06-03T06:49:33.472Z,101261.36
2018-06-03T06:52:02.304Z,101244.98
2018-06-03T06:54:31.296Z,101239.56
2018-06-03T06:57:00.333Z,101237.34
2018-06-03T06:59:29.524Z,101223.79
2018-06-03T07:01:58.441Z,101229.88
2018-06-03T07:04:27.490Z,101225.59
2018-06-03T07:06:56.472Z,101219.73
2018-06-03T07:09:25.309Z,101216.77
2018-06-03T07:11:54.180Z,101217.70
2018-06-03T07:14:23.034Z,101216.76
2018-06-03T07:16:52.100Z,101217.75
2018-06-03T07:19:21.273Z,101221.41
2018-06-03T07:21:50.087Z,101222.24
2018-06-03T07:24:18.982Z,101221.91
2018-06-03T07:26:47.918Z,101222.02
2018-06-03T07:29:16.734Z,101225.50
2018-06-03T07:31:45.587Z,101221.41
2018-06-03T07:34:14.638Z,101231.92
2018-06-03T07:36:44.616Z,101224.84
2018-06-03T07:39:13.777Z,101228.30
2018-06-03T07:41:42.804Z,101224.95
2018-06-03T07:44:11.848Z,101220.14
2018-06-03T07:46:40.696Z,101216.72
2018-06-03T07:49:09.771Z,101209.45
2018-06-03T07:51:38.837Z,101210.88
2018-06-03T07:54:08.067Z,101214.36
2018-06-03T07:56:36.902Z,101212.66
2018-06-03T07:59:05.959Z,101214.89
2018-06-03T08:01:34.867Z,101211.00
2018-06-03T08:04:03.774Z,101204.98
2018-06-03T08:06:32.847Z,101199.11
2018-06-03T08:09:01.900Z,101200.06
2018-06-03T08:11:31.053Z,101198.46
2018-06-03T08:13:59.928Z,101206.08
2018-06-03T08:16:29.101Z,101200.70
2018-06-03T08:18:58.235Z,101197.08
2018-06-03T08:21:27.073Z,101189.80
2018-06-03T08:23:56.172Z,101191.07
2018-06-03T08:26:26.032Z,101194.34
2018-06-03T08:28:55.020Z,101191.44
2018-06-03T08:31:23.966Z,101196.55
2018-06-03T08:33:53.088Z,101191.89
2018-06-03T08:36:21.965Z,101200.72
2018-06-03T08:38:51.022Z,101188.92
2018-06-03T08:41:19.983Z,101173.30
2018-06-03T08:43:49.043Z,101171.48
2018-06-03T08:46:18.180Z,101169.96
2018-06-03T08:48:47.340Z,101165.45
2018-06-03T08:51:16.245Z,101160.31
2018-06-03T08:53:45.274Z,101147.48
2018-06-03T08:56:14.361Z,101156.05
2018-06-03T08:58:43.266Z,101156.61
2018-06-03T09:01:12.206Z,101164.09
2018-06-03T09:03:41.390Z,101167.62
2018-06-03T09:06:10.302Z,101168.78
2018-06-03T09:08:39.336Z,101166.52
2018-06-03T09:11:08.394Z,101168.64
2018-06-03T09:13:37.460Z,101163.25
2018-06-03T09:16:06.525Z,101163.69
2018-06-03T09:18:35.664Z,101165.92
2018-06-03T09:21:04.564Z,101167.01
2018-06-03T09:23:33.528Z,101164.23
2018-06-03T09:26:02.472Z,101171.12
2018-06-03T09:28:31.336Z,101162.79
2018-06-03T09:31:06.281Z,101163.03
2018-06-03T09:33:35.206Z,101165.66
2018-06-03T09:36:04.094Z,101163.83
2018-06-03T09:38:32.979Z,101157.84
2018-06-03T09:41:02.068Z,101162.49
2018-06-03T09:43:30.916Z,101156.52
2018-06-03T09:45:59.848Z,101151.08
2018-06-03T09:48:28.761Z,101149.44
2018-06-03T09:50:57.802Z,101158.38
2018-06-03T09:53:26.776Z,101149.42
2018-06-03T09:55:55.626Z,101144.41
2018-06-03T09:58:24.639Z,101146.70
2018-06-03T10:00:53.509Z,101146.96
2018-06-03T10:03:22.423Z,101143.95
2018-06-03T10:05:51.362Z,101144.64
2018-06-03T10:08:20.446Z,101148.50
2018-06-03T10:10:49.427Z,101133.16
2018-06-03T10:13:18.318Z,101136.69
2018-06-03T10:15:48.180Z,101135.23
2018-06-03T10:18:17.138Z,101127.36
2018-06-03T10:20:46.033Z,101129.53
2018-06-03T10:23:14.892Z,101124.42
2018-06-03T10:25:43.924Z,101124.18
2018-06-03T10:28:13.010Z,101121.98
2018-06-03T10:30:41.752Z,101117.07
2018-06-03T10:33:10.668Z,101121.19
2018-06-03T10:35:39.830Z,101112.32
2018-06-03T10:38:08.699Z,101111.34
2018-06-03T10:40:37.508Z,101110.02
2018-06-03T10:43:06.561Z,101107.91
2018-06-03T10:45:35.468Z,101102.84
2018-06-03T10:48:04.318Z,101101.70
2018-06-03T10:50:33.179Z,101099.75
2018-06-03T10:53:01.981Z,101091.50
2018-06-03T10:55:30.909Z,101091.59
2018-06-03T10:57:59.947Z,101089.69
2018-06-03T11:00:28.897Z,101080.22
2018-06-03T11:02:57.947Z,101079.21
2018-06-03T11:05:27.544Z,101070.56
2018-06-03T11:07:56.575Z,101068.90
2018-06-03T11:10:25.722Z,101061.50
2018-06-03T11:12:54.829Z,101064.14
2018-06-03T11:15:23.673Z,101051.94
2018-06-03T11:17:52.727Z,101049.84
2018-06-03T11:20:21.624Z,101049.55
2018-06-03T11:22:56.778Z,101052.13
2018-06-03T11:25:25.946Z,101051.11
2018-06-03T11:27:55.237Z,101046.73
2018-06-03T11:30:24.342Z,101033.55
2018-06-03T11:32:53.293Z,101025.64
2018-06-03T11:35:22.415Z,101023.92
2018-06-03T11:37:51.739Z,101027.09
2018-06-03T11:40:20.884Z,101018.86
2018-06-03T11:42:49.878Z,101007.27
2018-06-03T11:45:18.900Z,101010.28
2018-06-03T11:47:48.109Z,101002.77
2018-06-03T11:50:17.078Z,100998.58
2018-06-03T11:52:46.116Z,100989.10
2018-06-03T11:55:15.001Z,100984.22
2018-06-03T11:57:45.020Z,100980.27
2018-06-03T12:00:14.182Z,100981.07
2018-06-03T12:02:43.177Z,100980.47
2018-06-03T12:05:12.104Z,100975.14
2018-06-03T12:07:41.101Z,100967.11
2018-06-03T12:10:10.113Z,100967.28
2018-06-03T12:12:38.976Z,100969.02
2018-06-03T12:15:08.084Z,100959.14
2018-06-03T12:17:37.054Z,100951.72
2018-06-03T12:20:05.975Z,100948.74
2018-06-03T12:23:10.881Z,100951.05
2018-06-03T12:25:41.072Z,100897.53
2018-06-03T12:28:11.252Z,100944.03
2018-06-03T12:30:41.399Z,100945.53
2018-06-03T12:33:11.592Z,100938.44
2018-06-03T12:35:41.773Z,100935.23
2018-06-03T12:38:11.933Z,100934.92
2018-06-03T12:40:42.126Z,100939.62
2018-06-03T12:43:12.268Z,100940.11
2018-06-03T12:45:42.495Z,100932.25
2018-06-03T12:48:12.804Z,100924.05
2018-06-03T12:50:43.614Z,100925.58
2018-06-03T12:53:13.867Z,100923.47
2018-06-03T12:55:44.012Z,100921.13
2018-06-03T12:58:14.974Z,100924.33
2018-06-03T13:00:45.201Z,100916.50
2018-06-03T13:03:15.736Z,100922.85
2018-06-03T13:05:46.104Z,100916.53
2018-06-03T13:08:16.368Z,100917.89
2018-06-03T13:10:46.654Z,100920.36
2018-06-03T13:13:17.002Z,100918.51
2018-06-03T13:15:47.196Z,100920.74
2018-06-03T13:18:17.177Z,100926.25
2018-06-03T13:20:47.396Z,100921.06
2018-06-03T13:23:17.581Z,100921.64
2018-06-03T13:25:47.520Z,100915.47
2018-06-03T13:28:17.357Z,100917.91
2018-06-03T13:30:47.781Z,100910.47
2018-06-03T13:33:17.609Z,100912.52
2018-06-03T13:35:47.647Z,100913.94
2018-06-03T13:38:17.478Z,100907.83
2018-06-03T13:40:47.814Z,100907.41
2018-06-03T13:43:18.109Z,100897.20
2018-06-03T13:45:48.254Z,100894.59
2018-06-03T13:48:18.596Z,100884.45
2018-06-03T13:50:48.684Z,100881.91
2018-06-03T13:53:18.772Z,100883.09
2018-06-03T13:55:48.934Z,100876.00
2018-06-03T13:58:18.714Z,100873.81
2018-06-03T14:00:48.981Z,100870.34
2018-06-03T14:03:19.317Z,100863.44
2018-06-03T14:05:49.140Z,100864.73
2018-06-03T14:08:19.438Z,100870.58
2018-06-03T14:10:49.628Z,100866.16
2018-06-03T14:13:19.981Z,100868.18
2018-06-03T14:15:50.253Z,100881.28
2018-06-03T14:18:20.220Z,100885.32
2018-06-03T14:20:50.503Z,100885.47
2018-06-03T14:23:20.597Z,100884.97
2018-06-03T14:25:50.649Z,100892.63
2018-06-03T14:28:20.986Z,100891.45
2018-06-03T14:30:50.857Z,100886.09
2018-06-03T14:33:20.895Z,100880.23
2018-06-03T14:35:50.992Z,100882.10
2018-06-03T14:38:21.199Z,100875.45
2018-06-03T14:40:51.064Z,100872.39
2018-06-03T14:43:20.991Z,100871.59
2018-06-03T14:45:50.806Z,100872.34
2018-06-03T14:48:20.753Z,100879.83
2018-06-03T14:50:50.865Z,100881.53
2018-06-03T14:53:20.568Z,100886.73
2018-06-03T14:55:50.828Z,100886.86
2018-06-03T14:58:21.132Z,100883.48
2018-06-03T15:00:50.802Z,100879.33
2018-06-03T15:03:20.800Z,100890.90
2018-06-03T15:05:50.999Z,100882.39
2018-06-03T15:08:20.896Z,100891.00
2018-06-03T15:10:51.285Z,100893.27
2018-06-03T15:13:21.245Z,100896.69
2018-06-03T15:15:51.132Z,100893.48
2018-06-03T15:18:21.102Z,100891.65
2018-06-03T15:20:51.365Z,100898.70
2018-06-03T15:23:21.549Z,100887.49
2018-06-03T15:25:51.835Z,100879.78
2018-06-03T15:28:21.561Z,100880.85
2018-06-03T15:30:51.499Z,100874.36
2018-06-03T15:33:21.467Z,100881.71
2018-06-03T15:35:52.655Z,100878.25
2018-06-03T15:38:22.732Z,100886.80
2018-06-03T15:40:52.900Z,100871.22
2018-06-03T15:43:23.068Z,100859.19
2018-06-03T15:45:52.830Z,100865.75
2018-06-03T15:48:22.640Z,100851.62
2018-06-03T15:50:52.440Z,100848.92
2018-06-03T15:53:22.156Z,100849.88
2018-06-03T15:55:51.906Z,100846.13
2018-06-03T15:58:21.800Z,100827.71
2018-06-03T16:00:51.558Z,100835.30
2018-06-03T16:03:21.896Z,100819.28
2018-06-03T16:05:51.857Z,100817.53
2018-06-03T16:08:21.727Z,100815.61
2018-06-03T16:10:51.838Z,100805.64
2018-06-03T16:13:21.581Z,100800.75
2018-06-03T16:15:51.357Z,100805.50
2018-06-03T16:18:22.481Z,100810.25
2018-06-03T16:20:52.437Z,100807.63
2018-06-03T16:23:22.245Z,100808.66
2018-06-03T16:25:52.230Z,100809.22
2018-06-03T16:28:21.924Z,100801.73
2018-06-03T16:30:51.622Z,100794.34
2018-06-03T16:33:21.567Z,100798.27
2018-06-03T16:35:51.270Z,100800.00
2018-06-03T16:38:20.958Z,100802.54
2018-06-03T16:40:50.702Z,100807.69
2018-06-03T16:43:20.614Z,100804.33
2018-06-03T16:45:50.520Z,100803.55
2018-06-03T16:48:20.193Z,100816.25
2018-06-03T16:50:49.919Z,100820.09
2018-06-03T16:53:20.157Z,100826.38
2018-06-03T16:55:50.504Z,100828.20
2018-06-03T16:58:20.275Z,100823.63
2018-06-03T17:00:50.199Z,100826.42
2018-06-03T17:03:20.062Z,100826.94
2018-06-03T17:05:49.763Z,100824.39
2018-06-03T17:08:19.678Z,100831.41
2018-06-03T17:10:49.512Z,100828.00
2018-06-03T17:13:19.246Z,100824.34
2018-06-03T17:15:49.064Z,100833.00
2018-06-03T17:18:18.782Z,100835.00
2018-06-03T17:20:48.616Z,100826.93
2018-06-03T17:23:18.356Z,100828.31
2018-06-03T17:25:48.060Z,100824.12
2018-06-03T17:28:17.782Z,100819.20
2018-06-03T17:30:47.607Z,100822.14
2018-06-03T17:33:17.409Z,100821.86
2018-06-03T17:35:47.156Z,100817.75
2018-06-03T17:38:16.950Z,100821.50
2018-06-03T17:40:46.718Z,100822.44
2018-06-03T17:43:16.542Z,100816.47
2018-06-03T17:45:46.216Z,100821.14
2018-06-03T17:48:16.024Z,100818.73
2018-06-03T17:50:45.781Z,100815.80
2018-06-03T17:53:15.484Z,100805.67
2018-06-03T17:55:45.449Z,100808.69
2018-06-03T17:58:15.212Z,100809.81
2018-06-03T18:00:44.860Z,100797.88
2018-06-03T18:03:14.760Z,100802.09
2018-06-03T18:05:44.477Z,100806.19
2018-06-03T18:08:14.329Z,100807.23
2018-06-03T18:10:44.153Z,100807.19
2018-06-03T18:13:13.917Z,100807.20
2018-06-03T18:15:43.672Z,100802.05
2018-06-03T18:18:13.425Z,100810.55
2018-06-03T18:20:43.248Z,100819.85
2018-06-03T18:23:12.947Z,100818.75
2018-06-03T18:25:42.761Z,100825.18
2018-06-03T18:28:12.505Z,100831.25
2018-06-03T18:30:42.201Z,100829.35
2018-06-03T18:33:11.912Z,100824.67
2018-06-03T18:35:50.047Z,100823.18
2018-06-03T18:38:25.581Z,100823.38
2018-06-03T18:41:09.280Z,100828.70
2018-06-03T18:43:47.595Z,100826.56
2018-06-03T18:46:17.363Z,100823.70
2018-06-03T18:48:49.769Z,100828.21
2018-06-03T18:51:24.393Z,100825.08
2018-06-03T18:53:56.122Z,100821.52
2018-06-03T18:56:30.969Z,100824.63
2018-06-03T18:59:00.796Z,100821.30
2018-06-03T19:01:30.764Z,100828.66
2018-06-03T19:04:00.546Z,100833.90
2018-06-03T19:06:30.249Z,100831.55
2018-06-03T19:09:00.308Z,100832.38
2018-06-03T19:11:30.208Z,100829.75
2018-06-03T19:14:00.232Z,100833.14
2018-06-03T19:16:29.888Z,100830.68
2018-06-03T19:18:59.593Z,100834.47
2018-06-03T19:21:29.448Z,100838.22
2018-06-03T19:23:59.217Z,100836.95
2018-06-03T19:26:28.936Z,100831.09
2018-06-03T19:28:58.765Z,100837.45
2018-06-03T19:31:28.896Z,100837.84
2018-06-03T19:33:58.680Z,100833.13
2018-06-03T19:36:28.504Z,100837.08
2018-06-03T19:38:58.141Z,100840.02
2018-06-03T19:41:27.916Z,100828.94
2018-06-03T19:43:57.672Z,100828.78
2018-06-03T19:46:28.225Z,100833.13
2018-06-03T19:48:58.056Z,100827.06
2018-06-03T19:51:34.479Z,100828.70
2018-06-03T19:54:18.394Z,100836.39
2018-06-03T19:57:03.232Z,100835.00
2018-06-03T19:59:33.047Z,100836.01
2018-06-03T20:02:05.170Z,100829.53
2018-06-03T20:04:48.551Z,100837.45
2018-06-03T20:07:19.160Z,100844.76
2018-06-03T20:09:48.959Z,100837.52
2018-06-03T20:12:18.709Z,100837.84
2018-06-03T20:14:48.476Z,100837.02
2018-06-03T20:17:18.212Z,100838.97
2018-06-03T20:19:48.102Z,100840.53
2018-06-03T20:22:17.830Z,100837.53
2018-06-03T20:24:47.494Z,100836.13
2018-06-03T20:27:17.324Z,100841.10
2018-06-03T20:29:47.056Z,100836.81
2018-06-03T20:32:16.838Z,100835.23
2018-06-03T20:34:46.932Z,100830.97
2018-06-03T20:37:17.038Z,100831.95
2018-06-03T20:39:46.780Z,100841.73
2018-06-03T20:42:16.448Z,100842.88
2018-06-03T20:44:46.248Z,100835.72
2018-06-03T20:47:16.014Z,100833.94
2018-06-03T20:49:45.899Z,100835.53
2018-06-03T20:52:16.147Z,100841.15
2018-06-03T20:54:45.956Z,100840.74
2018-06-03T20:57:15.625Z,100832.63
2018-06-03T20:59:45.382Z,100829.38
2018-06-03T21:02:15.120Z,100827.06
2018-06-03T21:04:44.904Z,100843.28
2018-06-03T21:07:14.696Z,100833.84
2018-06-03T21:09:44.476Z,100851.07
2018-06-03T21:12:14.255Z,100860.68
2018-06-03T21:14:44.259Z,100918.53
2018-06-03T21:17:14.428Z,100956.48
2018-06-03T21:19:44.441Z,100918.91
2018-06-03T21:22:14.408Z,100922.34
2018-06-03T21:24:44.341Z,100914.00
2018-06-03T21:27:14.045Z,100894.73
2018-06-03T21:29:43.800Z,100894.42
2018-06-03T21:32:13.724Z,100908.86
2018-06-03T21:34:43.813Z,100903.42
2018-06-03T21:37:13.496Z,100886.19
2018-06-03T21:39:43.481Z,100875.61
2018-06-03T21:42:13.168Z,100867.81
2018-06-03T21:44:43.201Z,100872.82
2018-06-03T21:47:13.204Z,100860.26
2018-06-03T21:49:43.261Z,100854.99
2018-06-03T21:52:13.321Z,100846.72
2018-06-03T21:54:43.392Z,100847.37
2018-06-03T21:57:13.454Z,100844.44
2018-06-03T21:59:43.185Z,100844.69
2018-06-03T22:02:12.881Z,100845.58
2018-06-03T22:04:42.576Z,100835.54
2018-06-03T22:07:12.666Z,100830.37
2018-06-03T22:09:42.749Z,100829.98
2018-06-03T22:12:12.473Z,100831.35
2018-06-03T22:14:42.860Z,100829.09
2018-06-03T22:17:13.140Z,100828.91
2018-06-03T22:19:43.464Z,100824.81
2018-06-03T22:22:13.652Z,100832.14
2018-06-03T22:24:43.704Z,100821.80
2018-06-03T22:27:13.488Z,100814.38
2018-06-03T22:29:43.509Z,100798.94
2018-06-03T22:32:13.559Z,100796.73
2018-06-03T22:34:43.315Z,100791.22
2018-06-03T22:37:13.221Z,100784.59
2018-06-03T22:39:42.901Z,100776.67
2018-06-03T22:42:12.721Z,100767.47
2018-06-03T22:44:42.472Z,100765.61
2018-06-03T22:47:12.603Z,100760.43
2018-06-03T22:49:42.451Z,100763.27
2018-06-03T22:52:12.277Z,100757.47
2018-06-03T22:54:42.279Z,100758.86
2018-06-03T22:57:52.008Z,100771.97
2018-06-03T23:00:31.081Z,100780.09
2018-06-03T23:03:06.430Z,100782.08
2018-06-03T23:05:36.962Z,100780.30
2018-06-03T23:08:07.195Z,100770.62
2018-06-03T23:10:37.500Z,100771.42
2018-06-03T23:13:07.630Z,100762.16
2018-06-03T23:15:37.541Z,100753.73
2018-06-03T23:18:07.713Z,100753.62
2018-06-03T23:20:37.734Z,100744.22
2018-06-03T23:23:07.961Z,100737.96
2018-06-03T23:25:38.193Z,100739.64
2018-06-03T23:28:08.431Z,100731.02
2018-06-03T23:30:38.337Z,100735.77
2018-06-03T23:33:08.284Z,100733.76
2018-06-03T23:35:38.190Z,100731.72
2018-06-03T23:38:08.247Z,100738.27
2018-06-03T23:40:38.669Z,100740.70
2018-06-03T23:43:08.664Z,100733.88
2018-06-03T23:45:38.606Z,100743.45
2018-06-03T23:48:08.466Z,100737.97
2018-06-03T23:50:38.440Z,100732.52
2018-06-03T23:53:08.670Z,100723.81
2018-06-03T23:55:38.919Z,100724.67
2018-06-03T23:58:09.272Z,100732.11
